BIGS weather

Grímsstaðir Airport
Grímsstaðir, Northeastern Region, Iceland

Public forecast

Using degrees Celsius for public forecast. Weather courtesy of forecast.io.

METAR (pilot weather report)

Report is more than 6 hours old.

Closest report is Vopnafjörður Airport, 32.5 nm (60.2 km) E. Retrieved 2019/06/17 08:31 UTC (2 days ago):

BIVO 170831Z 05007KT 6000 VCFG OVC002 06/05 Q1010

TAF (pilot weather forecast)

Forecast is more than 12 hours old.

Closest forecast is Bakkafjörður Airport, 40.1 nm (74.2 km) NE. Retrieved 2017/06/30 12:00 UTC (2 years ago):

TAF BIBK 301100Z 3012/0112 26006KT 8000 SCT013 TEMPO 3012/3018 BKN012 TEMPO 3018/3024 BKN014 PROB30 TEMPO 3022/0102 TS SCT015 FEW020CB PROB30 0104/0108 4000 BR BECMG 0108/0110 BKN011